sensor_id;sensor_type;location;lat;lon;timestamp;P1;durP1;ratioP1;P2;durP2;ratioP2
28545;SDS011;15749;49.606;8.738;2023-11-19T00:01:46;0.30;;;0.30;;
28545;SDS011;15749;49.606;8.738;2023-11-19T00:04:17;0.80;;;0.40;;
28545;SDS011;15749;49.606;8.738;2023-11-19T00:06:46;0.50;;;0.47;;
28545;SDS011;15749;49.606;8.738;2023-11-19T00:09:17;1.33;;;0.50;;
28545;SDS011;15749;49.606;8.738;2023-11-19T00:11:47;0.30;;;0.30;;
28545;SDS011;15749;49.606;8.738;2023-11-19T00:14:19;0.43;;;0.30;;
28545;SDS011;15749;49.606;8.738;2023-11-19T00:16:48;2.20;;;0.30;;
28545;SDS011;15749;49.606;8.738;2023-11-19T00:19:20;2.20;;;0.30;;
28545;SDS011;15749;49.606;8.738;2023-11-19T00:21:49;0.63;;;0.40;;
28545;SDS011;15749;49.606;8.738;2023-11-19T00:24:18;0.20;;;0.20;;
28545;SDS011;15749;49.606;8.738;2023-11-19T00:26:48;0.40;;;0.37;;
28545;SDS011;15749;49.606;8.738;2023-11-19T00:29:17;1.10;;;0.40;;
28545;SDS011;15749;49.606;8.738;2023-11-19T00:31:47;0.70;;;0.30;;
28545;SDS011;15749;49.606;8.738;2023-11-19T00:34:19;1.70;;;0.30;;
28545;SDS011;15749;49.606;8.738;2023-11-19T00:36:50;0.20;;;0.20;;
28545;SDS011;15749;49.606;8.738;2023-11-19T00:39:19;0.30;;;0.30;;
28545;SDS011;15749;49.606;8.738;2023-11-19T00:41:48;3.60;;;0.30;;
28545;SDS011;15749;49.606;8.738;2023-11-19T00:44:17;2.27;;;0.30;;
28545;SDS011;15749;49.606;8.738;2023-11-19T00:46:47;0.40;;;0.30;;
28545;SDS011;15749;49.606;8.738;2023-11-19T00:49:16;0.23;;;0.20;;
28545;SDS011;15749;49.606;8.738;2023-11-19T00:51:47;2.07;;;0.20;;
28545;SDS011;15749;49.606;8.738;2023-11-19T00:54:16;1.50;;;0.50;;
28545;SDS011;15749;49.606;8.738;2023-11-19T00:56:46;0.40;;;0.20;;
28545;SDS011;15749;49.606;8.738;2023-11-19T00:59:15;0.20;;;0.10;;
28545;SDS011;15749;49.606;8.738;2023-11-19T01:01:44;0.20;;;0.20;;
28545;SDS011;15749;49.606;8.738;2023-11-19T01:04:15;0.40;;;0.20;;
28545;SDS011;15749;49.606;8.738;2023-11-19T01:06:44;0.67;;;0.30;;
28545;SDS011;15749;49.606;8.738;2023-11-19T01:09:16;0.30;;;0.20;;
28545;SDS011;15749;49.606;8.738;2023-11-19T01:11:47;2.37;;;0.20;;
28545;SDS011;15749;49.606;8.738;2023-11-19T01:14:17;0.93;;;0.20;;
28545;SDS011;15749;49.606;8.738;2023-11-19T01:16:46;0.30;;;0.20;;
28545;SDS011;15749;49.606;8.738;2023-11-19T01:19:16;0.20;;;0.10;;
28545;SDS011;15749;49.606;8.738;2023-11-19T01:21:46;2.00;;;0.17;;
28545;SDS011;15749;49.606;8.738;2023-11-19T01:24:16;0.20;;;0.10;;
28545;SDS011;15749;49.606;8.738;2023-11-19T01:26:46;0.20;;;0.10;;
28545;SDS011;15749;49.606;8.738;2023-11-19T01:29:16;0.50;;;0.17;;
28545;SDS011;15749;49.606;8.738;2023-11-19T01:31:45;0.20;;;0.20;;
28545;SDS011;15749;49.606;8.738;2023-11-19T01:34:15;0.83;;;0.10;;
28545;SDS011;15749;49.606;8.738;2023-11-19T01:36:44;1.90;;;0.20;;
28545;SDS011;15749;49.606;8.738;2023-11-19T01:39:17;0.57;;;0.30;;
28545;SDS011;15749;49.606;8.738;2023-11-19T01:41:48;0.20;;;0.10;;
28545;SDS011;15749;49.606;8.738;2023-11-19T01:44:17;0.83;;;0.10;;
28545;SDS011;15749;49.606;8.738;2023-11-19T01:47:08;0.20;;;0.20;;
28545;SDS011;15749;49.606;8.738;2023-11-19T01:49:37;0.43;;;0.20;;
28545;SDS011;15749;49.606;8.738;2023-11-19T01:52:06;1.80;;;0.30;;
28545;SDS011;15749;49.606;8.738;2023-11-19T01:54:37;0.90;;;0.10;;
28545;SDS011;15749;49.606;8.738;2023-11-19T01:57:06;1.50;;;0.17;;
28545;SDS011;15749;49.606;8.738;2023-11-19T01:59:38;0.33;;;0.20;;
28545;SDS011;15749;49.606;8.738;2023-11-19T02:02:09;0.43;;;0.10;;
28545;SDS011;15749;49.606;8.738;2023-11-19T02:04:40;0.20;;;0.10;;
28545;SDS011;15749;49.606;8.738;2023-11-19T02:07:10;0.20;;;0.10;;
28545;SDS011;15749;49.606;8.738;2023-11-19T02:09:42;0.60;;;0.20;;
28545;SDS011;15749;49.606;8.738;2023-11-19T02:12:11;0.23;;;0.10;;
28545;SDS011;15749;49.606;8.738;2023-11-19T02:14:41;0.53;;;0.10;;
28545;SDS011;15749;49.606;8.738;2023-11-19T02:17:24;0.37;;;0.17;;
28545;SDS011;15749;49.606;8.738;2023-11-19T02:19:54;0.30;;;0.10;;
28545;SDS011;15749;49.606;8.738;2023-11-19T02:22:27;22.23;;;0.40;;
28545;SDS011;15749;49.606;8.738;2023-11-19T02:24:59;0.20;;;0.10;;
28545;SDS011;15749;49.606;8.738;2023-11-19T02:27:41;0.20;;;0.10;;
28545;SDS011;15749;49.606;8.738;2023-11-19T02:30:25;0.40;;;0.20;;
28545;SDS011;15749;49.606;8.738;2023-11-19T02:32:56;1.33;;;0.10;;
28545;SDS011;15749;49.606;8.738;2023-11-19T02:35:26;1.17;;;0.10;;
28545;SDS011;15749;49.606;8.738;2023-11-19T02:37:58;1.97;;;0.20;;
28545;SDS011;15749;49.606;8.738;2023-11-19T02:40:28;0.40;;;0.10;;
28545;SDS011;15749;49.606;8.738;2023-11-19T02:42:58;0.20;;;0.10;;
28545;SDS011;15749;49.606;8.738;2023-11-19T02:45:28;0.20;;;0.10;;
28545;SDS011;15749;49.606;8.738;2023-11-19T02:47:58;0.97;;;0.40;;
28545;SDS011;15749;49.606;8.738;2023-11-19T02:50:29;0.20;;;0.10;;
28545;SDS011;15749;49.606;8.738;2023-11-19T02:52:58;0.70;;;0.10;;
28545;SDS011;15749;49.606;8.738;2023-11-19T02:55:28;0.50;;;0.20;;
28545;SDS011;15749;49.606;8.738;2023-11-19T02:58:05;0.20;;;0.10;;
28545;SDS011;15749;49.606;8.738;2023-11-19T03:00:49;0.20;;;0.10;;
28545;SDS011;15749;49.606;8.738;2023-11-19T03:03:24;0.20;;;0.10;;
28545;SDS011;15749;49.606;8.738;2023-11-19T03:05:58;0.53;;;0.10;;
28545;SDS011;15749;49.606;8.738;2023-11-19T03:08:32;0.20;;;0.10;;
28545;SDS011;15749;49.606;8.738;2023-11-19T03:11:01;0.20;;;0.10;;
28545;SDS011;15749;49.606;8.738;2023-11-19T03:13:33;0.20;;;0.10;;
28545;SDS011;15749;49.606;8.738;2023-11-19T03:16:02;0.20;;;0.20;;
28545;SDS011;15749;49.606;8.738;2023-11-19T03:18:33;0.90;;;0.20;;
28545;SDS011;15749;49.606;8.738;2023-11-19T03:21:02;2.43;;;0.30;;
28545;SDS011;15749;49.606;8.738;2023-11-19T03:23:32;0.80;;;0.20;;
28545;SDS011;15749;49.606;8.738;2023-11-19T03:26:01;0.20;;;0.10;;
28545;SDS011;15749;49.606;8.738;2023-11-19T03:28:34;0.20;;;0.20;;
28545;SDS011;15749;49.606;8.738;2023-11-19T03:31:04;0.20;;;0.10;;
28545;SDS011;15749;49.606;8.738;2023-11-19T03:33:36;0.20;;;0.10;;
28545;SDS011;15749;49.606;8.738;2023-11-19T03:36:05;0.97;;;0.20;;
28545;SDS011;15749;49.606;8.738;2023-11-19T03:38:36;0.20;;;0.20;;
28545;SDS011;15749;49.606;8.738;2023-11-19T03:41:09;0.23;;;0.20;;
28545;SDS011;15749;49.606;8.738;2023-11-19T03:43:41;0.50;;;0.20;;
28545;SDS011;15749;49.606;8.738;2023-11-19T03:46:17;2.10;;;0.30;;
28545;SDS011;15749;49.606;8.738;2023-11-19T03:48:47;0.40;;;0.20;;
28545;SDS011;15749;49.606;8.738;2023-11-19T03:51:17;0.47;;;0.20;;
28545;SDS011;15749;49.606;8.738;2023-11-19T03:53:46;0.20;;;0.20;;
28545;SDS011;15749;49.606;8.738;2023-11-19T03:56:15;0.30;;;0.20;;
28545;SDS011;15749;49.606;8.738;2023-11-19T03:58:46;0.60;;;0.20;;
28545;SDS011;15749;49.606;8.738;2023-11-19T04:01:16;0.33;;;0.20;;
28545;SDS011;15749;49.606;8.738;2023-11-19T04:03:45;0.73;;;0.20;;
28545;SDS011;15749;49.606;8.738;2023-11-19T04:06:18;0.20;;;0.17;;
28545;SDS011;15749;49.606;8.738;2023-11-19T04:08:48;1.40;;;0.30;;
28545;SDS011;15749;49.606;8.738;2023-11-19T04:11:17;0.30;;;0.20;;
28545;SDS011;15749;49.606;8.738;2023-11-19T04:13:48;0.27;;;0.27;;
28545;SDS011;15749;49.606;8.738;2023-11-19T04:16:17;0.30;;;0.30;;
28545;SDS011;15749;49.606;8.738;2023-11-19T04:18:46;0.20;;;0.20;;
28545;SDS011;15749;49.606;8.738;2023-11-19T04:21:15;1.70;;;0.20;;
28545;SDS011;15749;49.606;8.738;2023-11-19T04:23:44;1.03;;;0.20;;
28545;SDS011;15749;49.606;8.738;2023-11-19T04:26:16;0.37;;;0.30;;
28545;SDS011;15749;49.606;8.738;2023-11-19T04:28:46;0.40;;;0.17;;
28545;SDS011;15749;49.606;8.738;2023-11-19T04:31:19;0.20;;;0.20;;
28545;SDS011;15749;49.606;8.738;2023-11-19T04:33:49;0.30;;;0.30;;
28545;SDS011;15749;49.606;8.738;2023-11-19T04:36:22;0.60;;;0.30;;
28545;SDS011;15749;49.606;8.738;2023-11-19T04:38:51;0.40;;;0.20;;
28545;SDS011;15749;49.606;8.738;2023-11-19T04:41:20;2.00;;;0.30;;
28545;SDS011;15749;49.606;8.738;2023-11-19T04:43:51;0.30;;;0.30;;
28545;SDS011;15749;49.606;8.738;2023-11-19T04:46:20;1.60;;;0.30;;
28545;SDS011;15749;49.606;8.738;2023-11-19T04:48:51;0.30;;;0.20;;
28545;SDS011;15749;49.606;8.738;2023-11-19T04:51:22;0.20;;;0.20;;
28545;SDS011;15749;49.606;8.738;2023-11-19T04:53:51;0.37;;;0.23;;
28545;SDS011;15749;49.606;8.738;2023-11-19T04:56:20;1.50;;;0.20;;
28545;SDS011;15749;49.606;8.738;2023-11-19T04:58:51;0.70;;;0.40;;
28545;SDS011;15749;49.606;8.738;2023-11-19T05:01:20;3.50;;;0.40;;
28545;SDS011;15749;49.606;8.738;2023-11-19T05:03:50;0.37;;;0.33;;
28545;SDS011;15749;49.606;8.738;2023-11-19T05:06:19;0.60;;;0.50;;
28545;SDS011;15749;49.606;8.738;2023-11-19T05:08:48;1.07;;;0.47;;
28545;SDS011;15749;49.606;8.738;2023-11-19T05:14:21;0.30;;;0.30;;
28545;SDS011;15749;49.606;8.738;2023-11-19T05:16:51;0.53;;;0.30;;
28545;SDS011;15749;49.606;8.738;2023-11-19T05:19:21;1.17;;;0.43;;
28545;SDS011;15749;49.606;8.738;2023-11-19T05:21:50;2.00;;;0.40;;
28545;SDS011;15749;49.606;8.738;2023-11-19T05:24:19;1.57;;;0.40;;
28545;SDS011;15749;49.606;8.738;2023-11-19T05:26:48;0.40;;;0.30;;
28545;SDS011;15749;49.606;8.738;2023-11-19T05:29:18;36.93;;;1.13;;
28545;SDS011;15749;49.606;8.738;2023-11-19T05:31:49;0.40;;;0.30;;
28545;SDS011;15749;49.606;8.738;2023-11-19T05:34:18;7.73;;;0.50;;
28545;SDS011;15749;49.606;8.738;2023-11-19T05:36:47;0.20;;;0.20;;
28545;SDS011;15749;49.606;8.738;2023-11-19T05:39:17;3.37;;;0.50;;
28545;SDS011;15749;49.606;8.738;2023-11-19T05:41:47;0.70;;;0.50;;
28545;SDS011;15749;49.606;8.738;2023-11-19T05:44:16;1.57;;;0.40;;
28545;SDS011;15749;49.606;8.738;2023-11-19T05:46:45;0.40;;;0.40;;
28545;SDS011;15749;49.606;8.738;2023-11-19T05:49:16;0.30;;;0.30;;
28545;SDS011;15749;49.606;8.738;2023-11-19T05:51:45;0.60;;;0.40;;
28545;SDS011;15749;49.606;8.738;2023-11-19T05:54:15;0.30;;;0.30;;
28545;SDS011;15749;49.606;8.738;2023-11-19T05:56:47;0.50;;;0.30;;
28545;SDS011;15749;49.606;8.738;2023-11-19T05:59:17;0.30;;;0.30;;
28545;SDS011;15749;49.606;8.738;2023-11-19T06:01:46;0.93;;;0.40;;
28545;SDS011;15749;49.606;8.738;2023-11-19T06:04:16;0.30;;;0.30;;
28545;SDS011;15749;49.606;8.738;2023-11-19T06:06:45;0.30;;;0.20;;
28545;SDS011;15749;49.606;8.738;2023-11-19T06:09:14;0.30;;;0.30;;
28545;SDS011;15749;49.606;8.738;2023-11-19T06:11:45;1.33;;;0.40;;
28545;SDS011;15749;49.606;8.738;2023-11-19T06:14:16;0.30;;;0.30;;
28545;SDS011;15749;49.606;8.738;2023-11-19T06:16:45;0.20;;;0.20;;
28545;SDS011;15749;49.606;8.738;2023-11-19T06:19:14;0.40;;;0.30;;
28545;SDS011;15749;49.606;8.738;2023-11-19T06:21:45;0.90;;;0.43;;
28545;SDS011;15749;49.606;8.738;2023-11-19T06:24:14;0.30;;;0.30;;
28545;SDS011;15749;49.606;8.738;2023-11-19T06:26:43;0.37;;;0.33;;
28545;SDS011;15749;49.606;8.738;2023-11-19T06:29:12;0.20;;;0.20;;
28545;SDS011;15749;49.606;8.738;2023-11-19T06:31:45;3.20;;;0.50;;
28545;SDS011;15749;49.606;8.738;2023-11-19T06:34:17;1.27;;;0.40;;
28545;SDS011;15749;49.606;8.738;2023-11-19T06:36:46;0.67;;;0.40;;
28545;SDS011;15749;49.606;8.738;2023-11-19T06:39:15;0.47;;;0.40;;
28545;SDS011;15749;49.606;8.738;2023-11-19T06:41:45;1.23;;;0.40;;
28545;SDS011;15749;49.606;8.738;2023-11-19T06:44:15;0.40;;;0.40;;
28545;SDS011;15749;49.606;8.738;2023-11-19T06:46:46;0.30;;;0.30;;
28545;SDS011;15749;49.606;8.738;2023-11-19T06:49:18;0.87;;;0.30;;
28545;SDS011;15749;49.606;8.738;2023-11-19T06:51:50;0.50;;;0.33;;
28545;SDS011;15749;49.606;8.738;2023-11-19T06:54:19;0.70;;;0.30;;
28545;SDS011;15749;49.606;8.738;2023-11-19T06:56:48;1.43;;;0.50;;
28545;SDS011;15749;49.606;8.738;2023-11-19T06:59:17;0.50;;;0.50;;
28545;SDS011;15749;49.606;8.738;2023-11-19T07:01:46;1.90;;;0.40;;
28545;SDS011;15749;49.606;8.738;2023-11-19T07:04:17;0.40;;;0.40;;
28545;SDS011;15749;49.606;8.738;2023-11-19T07:06:47;4.30;;;0.50;;
28545;SDS011;15749;49.606;8.738;2023-11-19T07:09:16;0.43;;;0.40;;
28545;SDS011;15749;49.606;8.738;2023-11-19T07:11:45;1.60;;;0.43;;
28545;SDS011;15749;49.606;8.738;2023-11-19T07:14:15;0.30;;;0.30;;
28545;SDS011;15749;49.606;8.738;2023-11-19T07:16:44;0.70;;;0.30;;
28545;SDS011;15749;49.606;8.738;2023-11-19T07:19:13;0.20;;;0.20;;
28545;SDS011;15749;49.606;8.738;2023-11-19T07:21:44;3.50;;;0.40;;
28545;SDS011;15749;49.606;8.738;2023-11-19T07:24:13;1.40;;;0.20;;
28545;SDS011;15749;49.606;8.738;2023-11-19T07:26:43;0.30;;;0.30;;
28545;SDS011;15749;49.606;8.738;2023-11-19T07:29:14;0.30;;;0.23;;
28545;SDS011;15749;49.606;8.738;2023-11-19T07:31:55;0.70;;;0.40;;
28545;SDS011;15749;49.606;8.738;2023-11-19T07:34:25;0.57;;;0.40;;
28545;SDS011;15749;49.606;8.738;2023-11-19T07:36:55;0.27;;;0.23;;
28545;SDS011;15749;49.606;8.738;2023-11-19T07:39:26;0.67;;;0.20;;
28545;SDS011;15749;49.606;8.738;2023-11-19T07:41:55;1.50;;;0.30;;
28545;SDS011;15749;49.606;8.738;2023-11-19T07:44:25;0.83;;;0.43;;
28545;SDS011;15749;49.606;8.738;2023-11-19T07:46:54;0.40;;;0.37;;
28545;SDS011;15749;49.606;8.738;2023-11-19T07:49:23;0.40;;;0.30;;
28545;SDS011;15749;49.606;8.738;2023-11-19T07:51:52;0.57;;;0.30;;
28545;SDS011;15749;49.606;8.738;2023-11-19T07:54:25;0.50;;;0.30;;
28545;SDS011;15749;49.606;8.738;2023-11-19T07:56:54;0.50;;;0.30;;
28545;SDS011;15749;49.606;8.738;2023-11-19T07:59:23;0.30;;;0.30;;
28545;SDS011;15749;49.606;8.738;2023-11-19T08:01:52;0.83;;;0.30;;
28545;SDS011;15749;49.606;8.738;2023-11-19T08:04:22;0.33;;;0.30;;
28545;SDS011;15749;49.606;8.738;2023-11-19T08:06:52;1.37;;;0.30;;
28545;SDS011;15749;49.606;8.738;2023-11-19T08:09:21;0.70;;;0.30;;
28545;SDS011;15749;49.606;8.738;2023-11-19T08:11:52;0.30;;;0.27;;
28545;SDS011;15749;49.606;8.738;2023-11-19T08:14:23;1.77;;;0.40;;
28545;SDS011;15749;49.606;8.738;2023-11-19T08:16:52;2.53;;;0.40;;
28545;SDS011;15749;49.606;8.738;2023-11-19T08:19:22;0.33;;;0.33;;
28545;SDS011;15749;49.606;8.738;2023-11-19T08:21:51;4.60;;;0.60;;
28545;SDS011;15749;49.606;8.738;2023-11-19T08:24:20;0.80;;;0.30;;
28545;SDS011;15749;49.606;8.738;2023-11-19T08:26:50;1.27;;;0.50;;
28545;SDS011;15749;49.606;8.738;2023-11-19T08:29:23;4.90;;;0.60;;
28545;SDS011;15749;49.606;8.738;2023-11-19T08:31:52;0.50;;;0.50;;
28545;SDS011;15749;49.606;8.738;2023-11-19T08:34:22;1.03;;;0.43;;
28545;SDS011;15749;49.606;8.738;2023-11-19T08:36:51;0.63;;;0.37;;
28545;SDS011;15749;49.606;8.738;2023-11-19T08:39:21;4.70;;;0.30;;
28545;SDS011;15749;49.606;8.738;2023-11-19T08:41:52;1.60;;;0.30;;
28545;SDS011;15749;49.606;8.738;2023-11-19T08:44:22;0.40;;;0.30;;
28545;SDS011;15749;49.606;8.738;2023-11-19T08:46:52;0.53;;;0.20;;
28545;SDS011;15749;49.606;8.738;2023-11-19T08:49:21;0.30;;;0.30;;
28545;SDS011;15749;49.606;8.738;2023-11-19T08:51:51;1.43;;;0.40;;
28545;SDS011;15749;49.606;8.738;2023-11-19T08:54:20;1.83;;;0.20;;
28545;SDS011;15749;49.606;8.738;2023-11-19T08:56:50;0.40;;;0.30;;
28545;SDS011;15749;49.606;8.738;2023-11-19T08:59:20;0.20;;;0.20;;
28545;SDS011;15749;49.606;8.738;2023-11-19T09:01:52;0.70;;;0.40;;
28545;SDS011;15749;49.606;8.738;2023-11-19T09:04:21;0.20;;;0.20;;
28545;SDS011;15749;49.606;8.738;2023-11-19T09:06:51;0.23;;;0.23;;
28545;SDS011;15749;49.606;8.738;2023-11-19T09:09:20;4.80;;;0.50;;
28545;SDS011;15749;49.606;8.738;2023-11-19T09:11:49;0.40;;;0.30;;
28545;SDS011;15749;49.606;8.738;2023-11-19T09:14:18;0.30;;;0.30;;
28545;SDS011;15749;49.606;8.738;2023-11-19T09:16:51;0.27;;;0.27;;
28545;SDS011;15749;49.606;8.738;2023-11-19T09:19:20;1.10;;;0.47;;
28545;SDS011;15749;49.606;8.738;2023-11-19T09:22:08;0.40;;;0.30;;
28545;SDS011;15749;49.606;8.738;2023-11-19T09:24:37;0.53;;;0.43;;
28545;SDS011;15749;49.606;8.738;2023-11-19T09:27:06;1.50;;;0.30;;
28545;SDS011;15749;49.606;8.738;2023-11-19T09:29:37;0.30;;;0.30;;
28545;SDS011;15749;49.606;8.738;2023-11-19T09:32:06;0.30;;;0.20;;
28545;SDS011;15749;49.606;8.738;2023-11-19T09:34:35;2.67;;;0.20;;
28545;SDS011;15749;49.606;8.738;2023-11-19T09:37:05;0.27;;;0.20;;
28545;SDS011;15749;49.606;8.738;2023-11-19T09:39:48;0.53;;;0.37;;
28545;SDS011;15749;49.606;8.738;2023-11-19T09:42:17;0.87;;;0.30;;
28545;SDS011;15749;49.606;8.738;2023-11-19T09:44:49;2.40;;;0.60;;
28545;SDS011;15749;49.606;8.738;2023-11-19T09:47:19;0.30;;;0.30;;
28545;SDS011;15749;49.606;8.738;2023-11-19T09:49:48;0.30;;;0.20;;
28545;SDS011;15749;49.606;8.738;2023-11-19T09:52:19;0.90;;;0.30;;
28545;SDS011;15749;49.606;8.738;2023-11-19T09:54:48;6.43;;;0.43;;
28545;SDS011;15749;49.606;8.738;2023-11-19T09:57:17;0.47;;;0.30;;
28545;SDS011;15749;49.606;8.738;2023-11-19T09:59:47;6.10;;;0.60;;
28545;SDS011;15749;49.606;8.738;2023-11-19T10:02:18;0.93;;;0.30;;
28545;SDS011;15749;49.606;8.738;2023-11-19T10:04:48;2.77;;;0.57;;
28545;SDS011;15749;49.606;8.738;2023-11-19T10:07:20;3.03;;;0.33;;
28545;SDS011;15749;49.606;8.738;2023-11-19T10:09:56;3.00;;;0.40;;
28545;SDS011;15749;49.606;8.738;2023-11-19T10:12:25;2.30;;;0.40;;
28545;SDS011;15749;49.606;8.738;2023-11-19T10:14:56;0.70;;;0.30;;
28545;SDS011;15749;49.606;8.738;2023-11-19T10:17:32;0.30;;;0.20;;
28545;SDS011;15749;49.606;8.738;2023-11-19T10:20:02;4.47;;;0.40;;
28545;SDS011;15749;49.606;8.738;2023-11-19T10:22:31;1.17;;;0.50;;
28545;SDS011;15749;49.606;8.738;2023-11-19T10:25:06;0.77;;;0.50;;
28545;SDS011;15749;49.606;8.738;2023-11-19T10:27:51;0.60;;;0.37;;
28545;SDS011;15749;49.606;8.738;2023-11-19T10:30:21;0.93;;;0.40;;
28545;SDS011;15749;49.606;8.738;2023-11-19T10:33:04;0.40;;;0.40;;
28545;SDS011;15749;49.606;8.738;2023-11-19T10:35:35;0.80;;;0.40;;
28545;SDS011;15749;49.606;8.738;2023-11-19T10:38:13;0.83;;;0.40;;
28545;SDS011;15749;49.606;8.738;2023-11-19T10:40:43;1.60;;;0.40;;
28545;SDS011;15749;49.606;8.738;2023-11-19T10:43:13;1.23;;;0.30;;
28545;SDS011;15749;49.606;8.738;2023-11-19T10:45:44;1.23;;;0.60;;
28545;SDS011;15749;49.606;8.738;2023-11-19T10:48:13;0.40;;;0.40;;
28545;SDS011;15749;49.606;8.738;2023-11-19T10:50:43;1.23;;;0.50;;
28545;SDS011;15749;49.606;8.738;2023-11-19T10:53:13;1.37;;;0.47;;
28545;SDS011;15749;49.606;8.738;2023-11-19T10:55:43;1.90;;;0.40;;
28545;SDS011;15749;49.606;8.738;2023-11-19T10:58:16;2.00;;;0.40;;
28545;SDS011;15749;49.606;8.738;2023-11-19T11:00:47;0.83;;;0.30;;
28545;SDS011;15749;49.606;8.738;2023-11-19T11:03:24;3.00;;;0.43;;
28545;SDS011;15749;49.606;8.738;2023-11-19T11:05:54;2.43;;;0.57;;
28545;SDS011;15749;49.606;8.738;2023-11-19T11:08:25;0.40;;;0.33;;
28545;SDS011;15749;49.606;8.738;2023-11-19T11:10:57;0.70;;;0.40;;
28545;SDS011;15749;49.606;8.738;2023-11-19T11:13:28;3.83;;;0.67;;
28545;SDS011;15749;49.606;8.738;2023-11-19T11:15:59;0.30;;;0.30;;
28545;SDS011;15749;49.606;8.738;2023-11-19T11:18:29;3.53;;;0.60;;
28545;SDS011;15749;49.606;8.738;2023-11-19T11:49:53;0.30;;;0.30;;
28545;SDS011;15749;49.606;8.738;2023-11-19T11:52:24;2.17;;;0.60;;
28545;SDS011;15749;49.606;8.738;2023-11-19T11:54:54;6.20;;;0.60;;
28545;SDS011;15749;49.606;8.738;2023-11-19T11:57:37;4.00;;;0.40;;
28545;SDS011;15749;49.606;8.738;2023-11-19T12:00:21;1.00;;;0.47;;
28545;SDS011;15749;49.606;8.738;2023-11-19T12:03:26;1.60;;;0.60;;
28545;SDS011;15749;49.606;8.738;2023-11-19T12:05:57;3.37;;;0.60;;
28545;SDS011;15749;49.606;8.738;2023-11-19T12:08:28;0.43;;;0.40;;
28545;SDS011;15749;49.606;8.738;2023-11-19T12:10:58;1.23;;;0.30;;
28545;SDS011;15749;49.606;8.738;2023-11-19T12:13:47;2.30;;;0.50;;
28545;SDS011;15749;49.606;8.738;2023-11-19T12:16:30;0.57;;;0.43;;
28545;SDS011;15749;49.606;8.738;2023-11-19T12:19:05;0.60;;;0.50;;
28545;SDS011;15749;49.606;8.738;2023-11-19T12:21:36;5.50;;;0.60;;
28545;SDS011;15749;49.606;8.738;2023-11-19T12:24:07;4.73;;;0.60;;
28545;SDS011;15749;49.606;8.738;2023-11-19T12:26:37;1.60;;;0.50;;
28545;SDS011;15749;49.606;8.738;2023-11-19T12:29:07;0.77;;;0.30;;
28545;SDS011;15749;49.606;8.738;2023-11-19T12:31:37;0.57;;;0.30;;
28545;SDS011;15749;49.606;8.738;2023-11-19T12:34:13;0.43;;;0.30;;
28545;SDS011;15749;49.606;8.738;2023-11-19T12:36:43;1.77;;;0.50;;
28545;SDS011;15749;49.606;8.738;2023-11-19T12:39:13;0.50;;;0.40;;
28545;SDS011;15749;49.606;8.738;2023-11-19T12:41:49;0.53;;;0.40;;
28545;SDS011;15749;49.606;8.738;2023-11-19T12:44:22;1.80;;;0.47;;
28545;SDS011;15749;49.606;8.738;2023-11-19T12:47:01;2.93;;;0.70;;
28545;SDS011;15749;49.606;8.738;2023-11-19T12:49:32;0.50;;;0.50;;
28545;SDS011;15749;49.606;8.738;2023-11-19T12:52:10;3.37;;;0.80;;
28545;SDS011;15749;49.606;8.738;2023-11-19T12:54:41;1.33;;;0.40;;
28545;SDS011;15749;49.606;8.738;2023-11-19T12:57:10;0.97;;;0.50;;
28545;SDS011;15749;49.606;8.738;2023-11-19T12:59:39;4.87;;;0.57;;
28545;SDS011;15749;49.606;8.738;2023-11-19T13:02:10;0.80;;;0.57;;
28545;SDS011;15749;49.606;8.738;2023-11-19T13:04:39;2.07;;;0.70;;
28545;SDS011;15749;49.606;8.738;2023-11-19T13:07:09;2.67;;;0.50;;
28545;SDS011;15749;49.606;8.738;2023-11-19T13:09:39;2.30;;;0.40;;
28545;SDS011;15749;49.606;8.738;2023-11-19T13:12:14;4.13;;;1.00;;
28545;SDS011;15749;49.606;8.738;2023-11-19T13:14:44;4.70;;;0.87;;
28545;SDS011;15749;49.606;8.738;2023-11-19T13:17:17;7.07;;;0.50;;
28545;SDS011;15749;49.606;8.738;2023-11-19T13:19:52;4.10;;;0.37;;
28545;SDS011;15749;49.606;8.738;2023-11-19T13:22:25;1.43;;;0.53;;
28545;SDS011;15749;49.606;8.738;2023-11-19T13:24:55;0.93;;;0.37;;
28545;SDS011;15749;49.606;8.738;2023-11-19T13:27:28;1.87;;;0.43;;
28545;SDS011;15749;49.606;8.738;2023-11-19T13:29:57;0.80;;;0.40;;
28545;SDS011;15749;49.606;8.738;2023-11-19T13:32:26;1.87;;;0.50;;
28545;SDS011;15749;49.606;8.738;2023-11-19T13:34:57;0.47;;;0.40;;
28545;SDS011;15749;49.606;8.738;2023-11-19T13:37:27;1.90;;;0.30;;
28545;SDS011;15749;49.606;8.738;2023-11-19T13:39:58;1.80;;;0.50;;
28545;SDS011;15749;49.606;8.738;2023-11-19T13:42:27;3.40;;;0.70;;
28545;SDS011;15749;49.606;8.738;2023-11-19T13:44:56;0.53;;;0.30;;
28545;SDS011;15749;49.606;8.738;2023-11-19T13:47:25;1.70;;;0.50;;
28545;SDS011;15749;49.606;8.738;2023-11-19T13:49:54;2.37;;;0.67;;
28545;SDS011;15749;49.606;8.738;2023-11-19T13:52:23;3.73;;;0.57;;
28545;SDS011;15749;49.606;8.738;2023-11-19T13:54:54;2.00;;;0.50;;
28545;SDS011;15749;49.606;8.738;2023-11-19T13:57:23;0.77;;;0.47;;
28545;SDS011;15749;49.606;8.738;2023-11-19T13:59:52;0.60;;;0.40;;
28545;SDS011;15749;49.606;8.738;2023-11-19T14:02:21;1.87;;;0.50;;
28545;SDS011;15749;49.606;8.738;2023-11-19T14:04:50;2.50;;;0.53;;
28545;SDS011;15749;49.606;8.738;2023-11-19T14:07:19;1.77;;;0.50;;
28545;SDS011;15749;49.606;8.738;2023-11-19T14:09:48;1.43;;;0.50;;
28545;SDS011;15749;49.606;8.738;2023-11-19T14:12:19;1.27;;;0.50;;
28545;SDS011;15749;49.606;8.738;2023-11-19T14:14:49;2.87;;;0.57;;
28545;SDS011;15749;49.606;8.738;2023-11-19T14:17:21;4.60;;;0.80;;
28545;SDS011;15749;49.606;8.738;2023-11-19T14:19:52;3.17;;;0.67;;
28545;SDS011;15749;49.606;8.738;2023-11-19T14:22:24;4.17;;;0.60;;
28545;SDS011;15749;49.606;8.738;2023-11-19T14:24:54;3.80;;;0.70;;
28545;SDS011;15749;49.606;8.738;2023-11-19T14:27:25;2.10;;;0.60;;
28545;SDS011;15749;49.606;8.738;2023-11-19T14:29:54;1.07;;;0.40;;
28545;SDS011;15749;49.606;8.738;2023-11-19T14:32:24;0.40;;;0.30;;
28545;SDS011;15749;49.606;8.738;2023-11-19T14:35:00;2.90;;;0.60;;
28545;SDS011;15749;49.606;8.738;2023-11-19T14:37:32;5.10;;;0.77;;
28545;SDS011;15749;49.606;8.738;2023-11-19T14:40:01;2.67;;;0.77;;
28545;SDS011;15749;49.606;8.738;2023-11-19T14:42:34;2.50;;;0.53;;
28545;SDS011;15749;49.606;8.738;2023-11-19T14:45:08;1.00;;;0.40;;
28545;SDS011;15749;49.606;8.738;2023-11-19T14:47:41;4.37;;;0.80;;
28545;SDS011;15749;49.606;8.738;2023-11-19T14:50:13;3.00;;;0.60;;
28545;SDS011;15749;49.606;8.738;2023-11-19T14:52:44;5.00;;;0.70;;
28545;SDS011;15749;49.606;8.738;2023-11-19T14:55:14;3.77;;;0.80;;
28545;SDS011;15749;49.606;8.738;2023-11-19T14:57:45;4.73;;;0.93;;
28545;SDS011;15749;49.606;8.738;2023-11-19T15:00:32;3.53;;;0.60;;
28545;SDS011;15749;49.606;8.738;2023-11-19T15:03:02;3.33;;;0.70;;
28545;SDS011;15749;49.606;8.738;2023-11-19T15:05:37;1.90;;;0.63;;
28545;SDS011;15749;49.606;8.738;2023-11-19T15:08:07;1.37;;;0.43;;
28545;SDS011;15749;49.606;8.738;2023-11-19T15:10:37;3.50;;;0.50;;
28545;SDS011;15749;49.606;8.738;2023-11-19T15:13:08;1.10;;;0.50;;
28545;SDS011;15749;49.606;8.738;2023-11-19T15:15:40;1.77;;;0.50;;
28545;SDS011;15749;49.606;8.738;2023-11-19T15:18:11;3.03;;;0.60;;
28545;SDS011;15749;49.606;8.738;2023-11-19T15:20:48;2.60;;;0.60;;
28545;SDS011;15749;49.606;8.738;2023-11-19T15:23:18;2.17;;;0.70;;
28545;SDS011;15749;49.606;8.738;2023-11-19T15:25:50;4.00;;;0.80;;
28545;SDS011;15749;49.606;8.738;2023-11-19T15:28:25;7.77;;;0.80;;
28545;SDS011;15749;49.606;8.738;2023-11-19T15:30:59;1.50;;;0.70;;
28545;SDS011;15749;49.606;8.738;2023-11-19T15:33:36;2.13;;;0.70;;
28545;SDS011;15749;49.606;8.738;2023-11-19T15:36:10;2.80;;;0.50;;
28545;SDS011;15749;49.606;8.738;2023-11-19T15:38:46;2.70;;;0.50;;
28545;SDS011;15749;49.606;8.738;2023-11-19T15:41:23;3.17;;;0.63;;
28545;SDS011;15749;49.606;8.738;2023-11-19T15:43:56;3.43;;;0.80;;